Time;durP1;ratioP1;P1;durP2;ratioP2;P2;SDS_P1;SDS_P2;PMS_P1;PMS_P2;Temp;Humidity;BMP_temperature;BMP_pressure;BME280_temperature;BME280_humidity;BME280_pressure;Samples;Min_cycle;Max_cycle;Signal;HPM_P1;HPM_P2
2022/09/24 00:01:14;;;;;;;8.60;6.30;;;;;;;13.44;87.61;101392.31;4984484;28;20677;-76
2022/09/24 00:03:44;;;;;;;9.23;7.20;;;;;;;13.41;87.97;101396.53;4984941;28;20191;-77
2022/09/24 00:06:13;;;;;;;8.67;7.60;;;;;;;13.41;87.86;101399.09;4982109;28;20235;-77
2022/09/24 00:08:39;;;;;;;10.97;7.20;;;;;;;13.41;88.24;101397.41;4983710;28;20195;-77
2022/09/24 00:11:06;;;;;;;8.50;7.53;;;;;;;13.40;88.24;101397.38;4980402;28;20701;-77
2022/09/24 00:13:34;;;;;;;11.37;7.17;;;;;;;13.40;87.76;101389.66;4983421;28;20188;-77
2022/09/24 00:16:06;;;;;;;12.93;7.53;;;;;;;13.37;88.56;101387.03;4982589;28;20191;-77
2022/09/24 00:18:32;;;;;;;7.53;6.83;;;;;;;13.38;88.94;101387.06;4978611;28;20231;-77
2022/09/24 00:20:58;;;;;;;7.73;6.97;;;;;;;13.34;88.94;101387.84;4984823;28;20924;-77
2022/09/24 00:23:24;;;;;;;7.93;7.13;;;;;;;13.32;89.00;101381.81;4983429;28;20279;-77
2022/09/24 00:28:34;;;;;;;7.43;6.70;;;;;;;13.29;89.05;101379.19;4985888;28;20231;-77
2022/09/24 00:31:05;;;;;;;8.30;6.77;;;;;;;13.31;88.77;101376.66;4983698;28;20210;-77
2022/09/24 00:33:33;;;;;;;7.00;6.30;;;;;;;13.36;88.09;101381.03;4988394;28;20460;-77
2022/09/24 00:36:03;;;;;;;11.37;6.70;;;;;;;13.30;88.31;101377.50;4989299;28;20238;-77
2022/09/24 00:38:33;;;;;;;6.77;6.17;;;;;;;13.29;88.19;101376.63;4990098;28;20274;-77
2022/09/24 00:40:59;;;;;;;6.67;5.97;;;;;;;13.26;88.21;101370.56;4992732;28;20220;-77
2022/09/24 00:43:32;;;;;;;7.70;6.50;;;;;;;13.26;88.39;101373.13;4989510;28;20192;-77
2022/09/24 00:46:30;;;;;;;8.37;6.50;;;;;;;13.27;88.76;101364.56;4995675;28;20192;-77
2022/09/24 00:49:12;;;;;;;7.97;6.40;;;;;;;13.25;88.84;101364.53;5002952;28;20197;-77
2022/09/24 00:51:40;;;;;;;6.77;6.07;;;;;;;13.26;88.21;101373.13;4987874;28;20215;-77
2022/09/24 00:54:13;;;;;;;7.43;6.73;;;;;;;13.26;88.71;101368.84;4991333;28;20241;-77
2022/09/24 00:56:42;;;;;;;7.63;6.47;;;;;;;13.20;89.07;101361.03;4989952;28;20183;-76
2022/09/24 00:59:10;;;;;;;7.97;6.97;;;;;;;13.17;89.58;101365.25;5010477;28;20380;-77
2022/09/24 01:01:36;;;;;;;8.07;7.00;;;;;;;13.16;89.55;101368.69;4969201;28;20207;-77
2022/09/24 01:04:03;;;;;;;9.93;6.63;;;;;;;13.11;89.57;101373.72;4994780;28;20183;-76
2022/09/24 01:06:29;;;;;;;7.17;6.47;;;;;;;13.12;89.62;101382.31;4988972;28;20211;-77
2022/09/24 01:08:56;;;;;;;8.20;7.33;;;;;;;13.14;89.32;101367.78;4991774;28;20193;-77
2022/09/24 01:11:40;;;;;;;8.57;7.77;;;;;;;13.11;88.42;101376.31;4985847;28;20209;-77
2022/09/24 01:14:09;;;;;;;8.37;7.53;;;;;;;13.10;88.80;101366.88;4987794;28;20192;-77
2022/09/24 01:16:58;;;;;;;9.57;7.37;;;;;;;13.12;88.53;101374.59;4995389;28;20196;-77
2022/09/24 01:19:45;;;;;;;8.33;7.53;;;;;;;13.10;88.91;101368.56;4988827;28;20258;-76
2022/09/24 01:22:29;;;;;;;8.37;7.57;;;;;;;13.13;88.75;101368.63;4991418;28;20242;-76
2022/09/24 01:24:59;;;;;;;8.27;7.27;;;;;;;13.14;88.70;101371.22;4988816;28;20209;-75
2022/09/24 01:27:34;;;;;;;10.13;7.03;;;;;;;13.16;88.46;101368.69;4985210;28;20188;-76
2022/09/24 01:30:10;;;;;;;8.93;7.93;;;;;;;13.14;88.79;101362.63;4989000;28;20183;-77
2022/09/24 01:32:37;;;;;;;8.67;7.87;;;;;;;13.13;88.86;101358.34;4984752;28;20266;-77
2022/09/24 01:35:12;;;;;;;8.77;7.63;;;;;;;13.12;88.76;101360.03;4986103;28;20200;-77
2022/09/24 01:37:40;;;;;;;9.03;7.73;;;;;;;13.09;88.91;101354.84;4989132;28;20235;-77
2022/09/24 01:40:08;;;;;;;9.30;7.97;;;;;;;13.05;88.90;101354.75;4985276;28;20269;-76
2022/09/24 01:42:35;;;;;;;9.97;9.07;;;;;;;13.02;88.94;101357.28;5001248;28;20740;-77
2022/09/24 01:45:01;;;;;;;8.87;8.07;;;;;;;13.00;89.09;101358.94;4989584;28;20190;-76
2022/09/24 01:47:39;;;;;;;10.70;9.07;;;;;;;12.98;89.14;101358.06;4989470;28;20188;-76
2022/09/24 01:50:09;;;;;;;9.30;8.40;;;;;;;12.95;89.13;101354.56;4985541;28;20265;-77
2022/09/24 01:52:51;;;;;;;9.60;8.60;;;;;;;12.91;89.48;101352.75;4987162;28;20240;-76
2022/09/24 01:55:19;;;;;;;9.53;8.53;;;;;;;12.94;89.51;101349.38;4992938;28;20657;-76
2022/09/24 01:57:53;;;;;;;9.10;8.20;;;;;;;12.94;89.33;101349.38;4984869;28;20191;-76
2022/09/24 02:00:20;;;;;;;11.67;8.03;;;;;;;12.96;89.64;101347.72;4982329;28;20259;-75
2022/09/24 02:02:49;;;;;;;9.30;8.40;;;;;;;12.94;89.32;101342.53;4987796;28;20703;-75
2022/09/24 02:05:20;;;;;;;10.53;8.70;;;;;;;12.96;89.45;101345.16;4985135;28;20189;-75
2022/09/24 02:07:54;;;;;;;10.67;8.23;;;;;;;12.95;89.63;101346.00;4988365;28;20184;-75
2022/09/24 02:10:20;;;;;;;8.90;8.00;;;;;;;12.94;89.61;101337.41;5001032;28;20187;-75
2022/09/24 02:12:55;;;;;;;10.60;8.47;;;;;;;12.95;89.96;101340.84;4986006;28;20204;-75
2022/09/24 02:15:27;;;;;;;10.73;8.97;;;;;;;12.98;90.04;101345.22;4987002;28;20187;-75
2022/09/24 02:17:58;;;;;;;10.80;7.97;;;;;;;12.96;89.67;101332.31;4984704;28;20194;-75
2022/09/24 02:20:26;;;;;;;9.90;8.70;;;;;;;12.90;90.11;101338.19;4985506;28;20306;-75
2022/09/24 02:22:56;;;;;;;9.07;8.17;;;;;;;12.90;90.89;101337.34;4986122;28;20217;-76
2022/09/24 02:25:31;;;;;;;9.00;8.10;;;;;;;12.88;90.65;101339.00;4987199;28;20206;-75
2022/09/24 02:27:57;;;;;;;8.93;8.10;;;;;;;12.87;90.63;101345.00;4984671;28;20272;-75
2022/09/24 02:30:23;;;;;;;9.23;8.23;;;;;;;12.87;90.61;101342.41;4983264;28;20651;-75
2022/09/24 02:32:49;;;;;;;9.90;8.90;;;;;;;12.87;90.81;101337.28;4991741;28;20730;-75
2022/09/24 02:35:16;;;;;;;9.13;8.23;;;;;;;12.85;91.02;101341.50;4993385;28;20578;-75
2022/09/24 02:37:43;;;;;;;10.33;8.50;;;;;;;12.87;90.66;101342.41;4990846;28;20184;-75
2022/09/24 02:40:11;;;;;;;11.00;9.43;;;;;;;12.85;90.54;101344.06;4989853;28;20208;-75
2022/09/24 02:42:39;;;;;;;11.83;8.93;;;;;;;12.81;90.65;101343.16;4994024;28;20694;-75
2022/09/24 02:45:05;;;;;;;9.80;8.80;;;;;;;12.80;90.79;101341.44;4983109;28;20196;-75
2022/09/24 02:47:30;;;;;;;10.50;8.90;;;;;;;12.79;90.81;101341.41;4980155;28;20203;-75
2022/09/24 02:49:56;;;;;;;10.67;9.57;;;;;;;12.79;91.32;101338.84;4992715;28;20184;-75
2022/09/24 02:52:22;;;;;;;12.33;9.60;;;;;;;12.78;91.30;101337.09;4973320;28;20586;-75
2022/09/24 02:54:49;;;;;;;10.90;9.90;;;;;;;12.79;91.38;101339.72;4978149;28;20192;-75
2022/09/24 02:57:16;;;;;;;11.13;9.27;;;;;;;12.80;91.21;101328.59;4979979;28;20207;-76
2022/09/24 02:59:41;;;;;;;10.40;9.40;;;;;;;12.79;91.25;101332.00;4977458;28;20295;-75
2022/09/24 03:02:07;;;;;;;11.03;9.80;;;;;;;12.82;91.26;101333.75;4984273;28;20352;-75
2022/09/24 03:04:32;;;;;;;9.33;8.53;;;;;;;12.79;91.32;101333.69;4977125;28;20560;-75
2022/09/24 03:06:58;;;;;;;10.07;9.03;;;;;;;12.75;91.97;101334.47;4992366;28;20192;-75
2022/09/24 03:09:23;;;;;;;11.07;9.97;;;;;;;12.74;91.75;101340.44;4978541;28;20184;-75
2022/09/24 03:11:49;;;;;;;10.33;9.20;;;;;;;12.77;91.65;101343.09;4984518;28;20216;-75
2022/09/24 03:14:14;;;;;;;10.40;9.13;;;;;;;12.76;91.34;101338.78;4981754;28;20238;-75
2022/09/24 03:16:40;;;;;;;11.40;9.13;;;;;;;12.76;91.59;101336.22;4982660;28;20184;-75
2022/09/24 03:19:06;;;;;;;10.17;9.27;;;;;;;12.74;91.65;101335.31;4989031;28;20699;-75
2022/09/24 03:21:31;;;;;;;10.43;9.13;;;;;;;12.74;91.40;101341.34;4991212;28;20207;-75
2022/09/24 03:23:58;;;;;;;12.00;9.40;;;;;;;12.72;91.30;101343.00;4980929;28;20617;-75
2022/09/24 03:26:24;;;;;;;11.60;9.20;;;;;;;12.71;91.47;101340.38;4991183;28;20226;-75
2022/09/24 03:28:50;;;;;;;10.40;9.40;;;;;;;12.68;91.31;101341.19;4988031;28;20191;-75
2022/09/24 03:31:16;;;;;;;12.13;9.23;;;;;;;12.68;91.17;101333.47;4990971;28;20772;-75
2022/09/24 03:33:44;;;;;;;10.73;9.17;;;;;;;12.70;91.17;101336.09;4991247;28;20906;-75
2022/09/24 03:36:16;;;;;;;10.97;9.97;;;;;;;12.70;91.48;101336.97;4982875;28;20241;-75
2022/09/24 03:38:43;;;;;;;12.00;9.93;;;;;;;12.67;91.43;101330.91;4990736;28;20198;-76
2022/09/24 03:41:10;;;;;;;11.00;9.70;;;;;;;12.70;91.64;101328.38;4993589;28;20272;-75
2022/09/24 03:43:36;;;;;;;10.57;9.20;;;;;;;12.69;91.69;101330.09;4991594;28;20192;-75
2022/09/24 03:46:03;;;;;;;11.33;10.07;;;;;;;12.70;91.98;101333.53;4991842;28;20560;-75
2022/09/24 03:48:29;;;;;;;11.87;10.77;;;;;;;12.65;91.81;101328.31;4995297;28;20223;-75
2022/09/24 03:50:54;;;;;;;11.20;9.97;;;;;;;12.63;92.40;101335.09;4992679;28;20238;-75
2022/09/24 03:53:20;;;;;;;11.07;10.03;;;;;;;12.59;93.32;101330.75;4992457;28;20268;-75
2022/09/24 03:55:54;;;;;;;15.60;10.63;;;;;;;12.64;92.62;101324.03;4994756;28;20669;-76
2022/09/24 03:58:20;;;;;;;11.63;10.43;;;;;;;12.64;92.25;101323.13;4991476;28;20275;-75
2022/09/24 04:00:45;;;;;;;11.93;10.67;;;;;;;12.60;92.50;101316.22;4993403;28;20318;-75
2022/09/24 04:03:11;;;;;;;11.53;10.37;;;;;;;12.62;92.41;101311.94;4993291;28;20190;-75
2022/09/24 04:05:37;;;;;;;11.93;10.07;;;;;;;12.63;92.91;101317.13;4998276;28;20188;-75
2022/09/24 04:08:03;;;;;;;16.47;10.70;;;;;;;12.62;92.46;101317.97;5005607;28;20190;-75
2022/09/24 04:10:29;;;;;;;11.17;10.07;;;;;;;12.66;92.96;101316.31;5001201;28;20179;-75
2022/09/24 04:12:55;;;;;;;12.00;9.97;;;;;;;12.67;92.50;101315.50;4986958;28;20203;-75
2022/09/24 04:15:22;;;;;;;11.03;9.93;;;;;;;12.69;92.81;101319.81;4991010;28;20680;-74
2022/09/24 04:17:56;;;;;;;12.90;10.00;;;;;;;12.71;92.35;101317.25;4978715;28;20834;-75
2022/09/24 04:20:24;;;;;;;11.70;10.50;;;;;;;12.69;92.83;101324.09;4988562;28;20579;-75
2022/09/24 04:22:52;;;;;;;12.03;10.87;;;;;;;12.70;92.34;101320.66;4998628;28;20208;-75
2022/09/24 04:25:18;;;;;;;12.60;11.40;;;;;;;12.69;92.42;101317.25;4993336;28;20661;-75
2022/09/24 04:27:44;;;;;;;13.47;11.83;;;;;;;12.69;92.43;101324.97;4998229;28;20218;-75
2022/09/24 04:30:12;;;;;;;12.67;11.57;;;;;;;12.65;93.03;101319.72;4992881;28;20215;-75
2022/09/24 04:32:38;;;;;;;14.27;12.77;;;;;;;12.65;93.02;101318.03;4988719;28;20246;-75
2022/09/24 04:35:04;;;;;;;13.93;12.63;;;;;;;12.66;92.38;101316.31;4993230;28;20188;-75
2022/09/24 04:37:30;;;;;;;13.63;12.20;;;;;;;12.69;92.54;101308.66;4993172;28;20187;-75
2022/09/24 04:39:55;;;;;;;14.43;12.97;;;;;;;12.71;92.54;101315.56;4993153;28;20213;-75
2022/09/24 04:42:21;;;;;;;14.87;12.57;;;;;;;12.68;92.61;101310.34;4998488;28;21715;-75
2022/09/24 04:44:46;;;;;;;14.63;13.20;;;;;;;12.70;91.97;101306.13;4996046;28;20559;-75
2022/09/24 04:47:15;;;;;;;14.77;13.17;;;;;;;12.72;92.59;101309.59;4994553;28;20326;-75
2022/09/24 04:49:43;;;;;;;14.80;13.40;;;;;;;12.72;92.85;101308.75;5006750;28;20248;-75
2022/09/24 04:52:09;;;;;;;13.87;12.47;;;;;;;12.72;92.53;101307.00;4995228;28;20242;-75
2022/09/24 04:54:35;;;;;;;14.83;13.37;;;;;;;12.69;93.06;101300.97;4996664;28;20219;-75
2022/09/24 04:57:00;;;;;;;15.60;13.80;;;;;;;12.68;93.00;101301.81;4997349;28;20190;-75
2022/09/24 04:59:26;;;;;;;15.03;13.53;;;;;;;12.70;92.74;101300.13;4995421;28;20211;-76
2022/09/24 05:01:53;;;;;;;15.47;13.97;;;;;;;12.71;92.98;101301.84;4986924;28;20634;-75
2022/09/24 05:04:18;;;;;;;15.43;13.97;;;;;;;12.70;92.65;101308.69;4998835;28;20275;-75
2022/09/24 05:06:44;;;;;;;15.23;13.73;;;;;;;12.71;92.42;101312.13;4993428;28;20267;-75
2022/09/24 05:09:09;;;;;;;16.53;14.93;;;;;;;12.68;93.18;101305.22;4994526;28;20270;-75
2022/09/24 05:11:35;;;;;;;15.47;13.77;;;;;;;12.67;93.39;101308.63;4995928;28;20207;-75
2022/09/24 05:14:00;;;;;;;16.97;15.27;;;;;;;12.68;93.53;101302.66;4998827;28;20194;-76
2022/09/24 05:16:26;;;;;;;14.80;13.40;;;;;;;12.71;93.26;101312.13;4983651;28;20191;-75
2022/09/24 05:18:51;;;;;;;17.13;15.50;;;;;;;12.71;93.59;101309.56;4991283;28;20616;-76
2022/09/24 05:21:16;;;;;;;17.13;15.50;;;;;;;12.72;93.67;101308.75;5000390;28;20961;-75
2022/09/24 05:23:42;;;;;;;18.70;15.20;;;;;;;12.73;93.25;101305.31;4998488;28;20704;-76
2022/09/24 05:28:51;;;;;;;15.27;13.77;;;;;;;12.79;93.15;101301.16;4992745;28;20245;-75
2022/09/24 05:31:17;;;;;;;16.70;14.83;;;;;;;12.81;93.72;101306.34;4996821;28;20211;-76
2022/09/24 05:33:43;;;;;;;17.10;15.43;;;;;;;12.79;93.73;101306.31;4988628;28;20191;-75
2022/09/24 05:36:08;;;;;;;16.93;15.23;;;;;;;12.75;94.38;101307.06;5001967;28;20615;-76
2022/09/24 05:38:34;;;;;;;18.10;16.20;;;;;;;12.77;94.09;101314.81;4996394;28;20646;-76
2022/09/24 05:40:59;;;;;;;16.93;15.27;;;;;;;12.79;94.54;101310.56;4996595;28;20816;-75
2022/09/24 05:43:26;;;;;;;16.87;15.07;;;;;;;12.79;94.16;101310.56;4994699;28;20196;-75
2022/09/24 05:45:53;;;;;;;17.33;15.53;;;;;;;12.78;94.67;101302.00;4997885;28;20187;-75
2022/09/24 05:48:20;;;;;;;17.03;15.33;;;;;;;12.79;94.72;101311.44;4991789;28;20210;-75
2022/09/24 05:50:45;;;;;;;18.30;16.50;;;;;;;12.83;94.41;101313.22;4999912;28;20552;-75
2022/09/24 05:53:11;;;;;;;18.23;16.27;;;;;;;12.85;94.59;101311.53;4998469;28;20246;-75
2022/09/24 05:55:37;;;;;;;17.77;15.90;;;;;;;12.86;94.16;101309.84;4993002;28;20196;-75
2022/09/24 05:58:08;;;;;;;18.90;16.90;;;;;;;12.82;94.16;101315.75;4997678;28;20198;-75
2022/09/24 06:00:35;;;;;;;18.37;16.50;;;;;;;12.83;94.71;101313.22;4992816;28;20635;-75
2022/09/24 06:03:03;;;;;;;18.57;16.00;;;;;;;12.86;94.36;101315.84;4996065;28;20195;-76
2022/09/24 06:05:28;;;;;;;19.07;17.07;;;;;;;12.87;94.24;101324.41;4992249;28;20195;-75
2022/09/24 06:07:55;;;;;;;17.43;15.73;;;;;;;12.87;93.85;101316.72;5000751;28;20203;-75
2022/09/24 06:10:20;;;;;;;18.80;16.80;;;;;;;12.92;94.16;101317.66;4988569;28;20564;-75
2022/09/24 06:12:45;;;;;;;19.57;17.43;;;;;;;12.91;94.65;101316.78;4986093;28;20212;-75
2022/09/24 06:15:12;;;;;;;18.27;16.47;;;;;;;12.91;94.39;101321.06;4985832;28;20180;-75
2022/09/24 06:17:38;;;;;;;18.40;16.50;;;;;;;12.90;94.96;101321.91;4985045;28;20192;-75
2022/09/24 06:20:04;;;;;;;19.67;17.57;;;;;;;12.90;95.45;101324.50;4985915;28;20209;-76
2022/09/24 06:22:29;;;;;;;19.03;17.00;;;;;;;12.93;95.24;101323.69;4986954;28;20203;-75
2022/09/24 06:24:55;;;;;;;19.70;17.70;;;;;;;12.98;95.32;101322.06;4985895;28;20278;-75
2022/09/24 06:27:20;;;;;;;20.67;18.53;;;;;;;12.97;95.32;101321.19;4984492;28;20176;-75
2022/09/24 06:29:46;;;;;;;20.27;18.23;;;;;;;13.00;95.41;101322.97;4985517;28;20191;-75
2022/09/24 06:32:11;;;;;;;21.83;18.10;;;;;;;13.00;95.44;101317.81;4989142;28;20215;-76
2022/09/24 06:34:37;;;;;;;20.90;18.70;;;;;;;12.99;95.74;101321.22;4982123;28;20192;-77
2022/09/24 06:37:03;;;;;;;19.73;17.73;;;;;;;13.00;95.97;101323.84;4989436;28;20282;-78
2022/09/24 06:39:28;;;;;;;20.37;18.37;;;;;;;13.01;95.94;101319.53;4986686;28;20204;-76
2022/09/24 06:41:55;;;;;;;22.40;19.37;;;;;;;12.97;96.10;101326.34;4989818;28;20553;-77
2022/09/24 06:44:20;;;;;;;22.70;20.30;;;;;;;13.00;96.56;101326.41;4986191;28;20176;-75
2022/09/24 06:46:47;;;;;;;23.17;20.77;;;;;;;12.98;96.62;101325.50;4989255;28;20203;-76
2022/09/24 06:49:12;;;;;;;21.83;19.53;;;;;;;13.01;96.61;101325.56;4989515;28;20183;-76
2022/09/24 06:51:38;;;;;;;20.93;18.83;;;;;;;13.01;96.81;101330.69;4979863;28;20708;-76
2022/09/24 06:54:04;;;;;;;21.97;19.67;;;;;;;13.01;96.43;101324.69;4997326;28;20180;-75
2022/09/24 06:56:30;;;;;;;22.60;20.30;;;;;;;13.00;96.35;101328.09;4976377;28;20224;-76
2022/09/24 06:58:55;;;;;;;21.97;19.77;;;;;;;12.99;96.90;101334.97;4984528;28;20200;-75
2022/09/24 07:01:21;;;;;;;23.70;21.17;;;;;;;12.98;96.54;101333.22;4978087;28;20220;-75
2022/09/24 07:03:47;;;;;;;23.63;20.97;;;;;;;13.00;96.83;101341.84;4985079;28;20640;-75
2022/09/24 07:06:12;;;;;;;24.53;21.27;;;;;;;12.99;97.34;101336.66;4976112;28;20183;-75
2022/09/24 07:08:38;;;;;;;23.90;20.70;;;;;;;13.00;98.01;101340.97;4976950;28;20200;-76
2022/09/24 07:11:04;;;;;;;22.80;20.27;;;;;;;13.00;97.99;101338.38;4987378;28;20696;-75
2022/09/24 07:13:29;;;;;;;23.27;20.80;;;;;;;13.03;97.77;101344.44;4980892;28;20218;-77
2022/09/24 07:15:55;;;;;;;22.80;20.60;;;;;;;13.03;97.69;101344.44;4988496;28;20882;-76
2022/09/24 07:18:20;;;;;;;27.57;20.70;;;;;;;13.03;97.81;101338.44;4980525;28;20728;-76
2022/09/24 07:20:53;;;;;;;24.23;21.73;;;;;;;13.03;98.18;101334.16;4981239;28;20231;-76
2022/09/24 07:23:20;;;;;;;23.00;20.67;;;;;;;13.07;98.05;101338.50;4975513;28;20190;-77
2022/09/24 07:25:46;;;;;;;22.83;20.53;;;;;;;13.11;97.72;101342.03;4986161;28;20196;-77
2022/09/24 07:28:14;;;;;;;25.10;21.67;;;;;;;13.13;98.08;101337.75;4982726;28;20558;-75
2022/09/24 07:30:40;;;;;;;23.50;21.07;;;;;;;13.16;98.17;101342.97;4981133;28;20196;-78
2022/09/24 07:33:06;;;;;;;24.77;22.00;;;;;;;13.20;98.14;101343.03;4981684;28;20184;-75
2022/09/24 07:35:32;;;;;;;25.93;23.13;;;;;;;13.21;97.88;101344.75;4990081;28;20214;-77
2022/09/24 07:38:03;;;;;;;24.73;22.00;;;;;;;13.21;97.67;101349.91;4994122;28;20250;-77
2022/09/24 07:40:30;;;;;;;25.10;22.50;;;;;;;13.20;98.35;101345.59;4989159;28;20216;-75
2022/09/24 07:42:56;;;;;;;26.30;23.60;;;;;;;13.20;98.24;101342.16;4993661;28;20184;-76
2022/09/24 07:45:22;;;;;;;25.53;22.77;;;;;;;13.26;98.20;101342.28;4976068;28;20188;-76
2022/09/24 07:47:56;;;;;;;25.47;22.77;;;;;;;13.26;98.64;101348.25;4998951;28;20195;-77
2022/09/24 07:50:22;;;;;;;26.80;22.53;;;;;;;13.22;98.25;101346.47;4988825;28;20199;-75
2022/09/24 07:52:50;;;;;;;25.63;22.90;;;;;;;13.22;98.47;101349.03;4989665;28;20223;-75
2022/09/24 07:55:17;;;;;;;26.07;23.23;;;;;;;13.21;98.08;101347.31;4989117;28;20187;-75
2022/09/24 07:57:51;;;;;;;26.17;23.40;;;;;;;13.23;98.45;101350.81;4989737;28;20560;-76
2022/09/24 08:00:18;;;;;;;29.07;22.33;;;;;;;13.23;98.21;101353.38;4992911;28;20214;-76
2022/09/24 08:02:44;;;;;;;26.90;23.23;;;;;;;13.23;98.51;101352.50;4985586;28;20208;-76
2022/09/24 08:05:10;;;;;;;25.50;22.80;;;;;;;13.26;98.36;101355.97;5001284;28;20211;-76
2022/09/24 08:07:35;;;;;;;26.07;23.27;;;;;;;13.27;98.38;101356.84;4984950;28;20180;-76
2022/09/24 08:10:01;;;;;;;28.87;23.37;;;;;;;13.29;98.57;101357.72;4998734;28;20664;-78
2022/09/24 08:12:29;;;;;;;27.10;23.37;;;;;;;13.33;98.07;101359.53;5008689;28;20683;-77
2022/09/24 08:14:55;;;;;;;28.17;24.10;;;;;;;13.38;97.52;101357.88;4997494;28;20242;-76
2022/09/24 08:17:21;;;;;;;27.07;23.00;;;;;;;13.41;97.98;101365.66;4996452;28;20233;-75
2022/09/24 08:19:46;;;;;;;26.27;23.07;;;;;;;13.44;98.57;101371.72;4993596;28;20608;-78
2022/09/24 08:22:15;;;;;;;28.17;24.13;;;;;;;13.37;98.15;101369.03;4989095;28;20585;-76
2022/09/24 08:24:41;;;;;;;29.23;25.37;;;;;;;13.38;98.69;101365.59;4982441;28;20266;-76
2022/09/24 08:27:07;;;;;;;28.97;24.93;;;;;;;13.39;98.29;101365.63;4990804;28;20638;-76
2022/09/24 08:29:32;;;;;;;31.43;25.83;;;;;;;13.43;98.12;101364.84;4986200;28;20187;-76
2022/09/24 08:31:58;;;;;;;31.30;26.23;;;;;;;13.44;98.26;101369.16;4999228;28;20212;-77
2022/09/24 08:34:23;;;;;;;28.30;24.70;;;;;;;13.50;98.39;101363.25;4997201;28;20187;-77
2022/09/24 08:36:49;;;;;;;29.57;25.23;;;;;;;13.56;97.80;101364.22;4997085;28;20222;-76
2022/09/24 08:39:15;;;;;;;27.03;23.67;;;;;;;13.56;97.24;101363.31;5002707;28;20271;-75
2022/09/24 08:41:43;;;;;;;32.67;26.20;;;;;;;13.61;97.30;101365.13;4993861;28;20282;-76
2022/09/24 08:47:41;;;;;;;30.70;26.50;;;;;;;13.73;97.37;101367.03;4998946;28;20198;-76
2022/09/24 08:50:12;;;;;;;34.43;25.83;;;;;;;13.74;96.85;101356.75;4992169;28;20191;-76
2022/09/24 08:52:59;;;;;;;29.37;25.13;;;;;;;13.87;97.14;101357.81;4998013;28;20214;-78
2022/09/24 08:55:33;;;;;;;28.77;24.03;;;;;;;13.93;97.08;101368.19;4991179;28;20283;-76
2022/09/24 08:58:21;;;;;;;29.43;25.00;;;;;;;13.89;96.35;101366.41;4981963;28;20203;-75
2022/09/24 09:01:11;;;;;;;28.87;24.83;;;;;;;13.92;96.67;101366.44;4994366;28;20202;-78
2022/09/24 09:04:10;;;;;;;31.20;24.93;;;;;;;13.99;96.23;101368.28;4998056;28;20219;-78
2022/09/24 09:07:11;;;;;;;32.40;27.17;;;;;;;14.00;96.00;101370.84;4995648;28;20281;-76
2022/09/24 09:09:43;;;;;;;29.17;24.67;;;;;;;13.98;95.68;101377.72;4986168;28;20267;-76
2022/09/24 09:12:39;;;;;;;32.57;27.97;;;;;;;13.91;95.88;101370.72;5000370;28;20219;-76
2022/09/24 09:15:18;;;;;;;32.73;27.03;;;;;;;13.93;96.13;101381.06;4976491;28;20237;-75
2022/09/24 09:17:51;;;;;;;30.23;25.90;;;;;;;13.93;96.49;101373.31;4996216;28;20188;-78
2022/09/24 09:20:42;;;;;;;31.27;26.43;;;;;;;14.03;96.79;101373.47;4986937;28;20734;-76
2022/09/24 09:23:30;;;;;;;35.93;27.33;;;;;;;13.98;96.80;101381.97;4995589;28;20827;-75
2022/09/24 09:25:58;;;;;;;31.77;26.23;;;;;;;13.87;96.67;101374.13;4999717;28;20207;-75
2022/09/24 09:28:27;;;;;;;37.37;27.30;;;;;;;13.91;96.86;101372.47;4977590;28;20185;-75
2022/09/24 09:30:59;;;;;;;29.97;25.77;;;;;;;13.89;96.24;101376.69;4989316;28;20624;-75
2022/09/24 09:33:55;;;;;;;35.67;27.47;;;;;;;14.02;96.85;101381.19;4975438;28;20200;-75
2022/09/24 09:36:30;;;;;;;34.33;27.77;;;;;;;14.02;96.73;101370.88;4982377;28;20184;-76
2022/09/24 09:39:01;;;;;;;33.67;25.73;;;;;;;14.07;96.49;101375.25;4992798;28;20557;-76
2022/09/24 09:41:38;;;;;;;30.73;26.10;;;;;;;14.06;95.77;101380.38;4978429;28;20791;-76
2022/09/24 09:44:21;;;;;;;29.73;25.73;;;;;;;14.05;95.63;101381.25;4995096;28;20192;-76
2022/09/24 09:46:53;;;;;;;31.20;25.50;;;;;;;14.00;95.76;101378.59;4981035;28;20609;-76
2022/09/24 09:49:18;;;;;;;30.23;24.63;;;;;;;14.01;95.75;101379.47;4980829;28;20196;-76
2022/09/24 09:51:47;;;;;;;30.67;25.70;;;;;;;14.03;95.32;101382.91;4994369;28;20277;-76
2022/09/24 09:54:13;;;;;;;30.17;25.23;;;;;;;14.00;96.16;101375.16;4979876;28;20215;-76
2022/09/24 09:56:44;;;;;;;29.10;25.40;;;;;;;13.99;96.01;101376.00;4987792;28;20697;-76
2022/09/24 09:59:10;;;;;;;32.07;26.20;;;;;;;14.00;96.75;101376.00;4984239;28;20247;-76
2022/09/24 10:01:39;;;;;;;33.47;26.33;;;;;;;14.01;97.16;101376.88;4989044;28;20216;-76
2022/09/24 10:04:20;;;;;;;31.07;26.23;;;;;;;13.99;96.65;101382.00;4989943;28;20195;-77
2022/09/24 10:06:45;;;;;;;29.90;26.07;;;;;;;13.94;96.89;101372.47;4992463;28;20720;-76
2022/09/24 10:09:14;;;;;;;32.30;26.70;;;;;;;13.92;97.22;101381.91;4985188;28;20182;-76
2022/09/24 10:11:41;;;;;;;30.33;25.13;;;;;;;13.97;97.26;101382.84;4988967;28;20700;-76
2022/09/24 10:14:12;;;;;;;31.53;25.63;;;;;;;13.94;97.18;101383.66;4992271;28;20258;-76
2022/09/24 10:16:49;;;;;;;30.67;25.77;;;;;;;13.90;97.25;101379.31;4982423;28;20268;-76
2022/09/24 10:19:23;;;;;;;34.13;25.63;;;;;;;13.85;97.60;101377.53;4999791;28;20195;-76
2022/09/24 10:21:50;;;;;;;28.43;25.33;;;;;;;13.82;98.32;101377.47;4995059;28;20315;-76
2022/09/24 10:24:20;;;;;;;32.33;26.00;;;;;;;13.83;98.41;101377.50;4996799;28;20292;-76
2022/09/24 10:26:46;;;;;;;32.73;26.17;;;;;;;13.88;98.13;101373.28;4991549;28;20196;-76
2022/09/24 10:32:19;;;;;;;33.83;27.00;;;;;;;13.85;97.74;101378.38;4997961;28;20716;-76
2022/09/24 10:34:59;;;;;;;32.63;26.30;;;;;;;13.76;97.82;101375.66;5000295;28;20242;-76
2022/09/24 10:37:26;;;;;;;29.43;24.37;;;;;;;13.83;97.79;101384.34;4992210;28;20536;-76
2022/09/24 10:40:12;;;;;;;31.77;26.10;;;;;;;13.86;97.75;101376.69;5000220;28;20212;-76
2022/09/24 10:42:38;;;;;;;30.87;26.33;;;;;;;13.87;97.58;101378.41;4990770;28;20902;-76
2022/09/24 10:45:12;;;;;;;30.73;26.50;;;;;;;13.83;97.71;101369.78;5004299;28;20185;-76
2022/09/24 10:47:55;;;;;;;36.43;27.13;;;;;;;13.82;97.99;101374.91;4991996;28;20689;-76
2022/09/24 10:50:53;;;;;;;34.40;26.57;;;;;;;13.80;98.42;101374.88;4999574;28;20191;-76
2022/09/24 10:53:37;;;;;;;28.63;24.03;;;;;;;13.82;98.26;101373.19;4990282;28;20399;-76
2022/09/24 10:56:22;;;;;;;29.83;25.23;;;;;;;13.85;98.25;101374.94;4998529;28;20183;-76
2022/09/24 10:59:06;;;;;;;33.33;27.33;;;;;;;13.95;97.55;101372.50;5001179;28;20206;-77
2022/09/24 11:02:05;;;;;;;29.83;25.73;;;;;;;13.97;97.90;101380.25;4992588;28;20641;-77
2022/09/24 11:05:09;;;;;;;32.47;24.90;;;;;;;13.92;97.36;101376.75;4995669;28;20698;-78
2022/09/24 11:08:05;;;;;;;29.97;25.03;;;;;;;14.07;97.33;101387.25;4943846;29;20228;-78
2022/09/24 11:10:30;;;;;;;30.07;24.20;;;;;;;14.22;96.72;101380.66;4993337;28;20317;-76
2022/09/24 11:13:29;;;;;;;30.03;24.07;;;;;;;14.35;97.21;101371.34;5002157;28;20199;-78
2022/09/24 11:16:16;;;;;;;28.30;23.93;;;;;;;14.50;96.61;101371.56;4993585;28;20665;-76
2022/09/24 11:18:45;;;;;;;24.87;22.17;;;;;;;14.58;95.88;101369.91;4995149;28;20282;-78
2022/09/24 11:21:22;;;;;;;24.50;21.07;;;;;;;14.64;96.63;101370.03;4998745;28;20246;-77
2022/09/24 11:24:15;;;;;;;25.93;22.50;;;;;;;14.67;96.25;101372.59;4993249;28;20196;-76
2022/09/24 11:26:44;;;;;;;26.63;21.63;;;;;;;14.68;95.63;101364.91;4995325;28;20208;-78
2022/09/24 11:29:46;;;;;;;25.63;22.27;;;;;;;14.71;96.27;101366.63;4981949;28;20194;-76
2022/09/24 11:32:29;;;;;;;25.93;22.50;;;;;;;14.49;96.08;101367.25;5000456;28;20226;-77
2022/09/24 11:35:13;;;;;;;24.83;22.23;;;;;;;14.55;95.54;101362.19;4994827;28;20191;-78
2022/09/24 11:37:45;;;;;;;25.10;21.70;;;;;;;14.54;95.71;101360.47;4991195;28;20183;-78
2022/09/24 11:40:20;;;;;;;26.77;23.97;;;;;;;14.48;95.98;101361.25;4999890;28;20199;-78